Airfield :
LOGIN :

Register | Disclaimer

   EN    FR    IT 

 










Legend :    VFR   Marginal VFR   IFR   Intensive IFR   Very Intensive IFR
Visi :
Ceiling :
>= 8 km
>= 3000ft
5 to 8 km
1000 to 3000 ft
1500m to 5 km
500 to 1000 ft
800 to 1500m
200 to 500 ft
< 800m
< 200 ft
Symbols :   Thunderstorms  Fog  Heavy snow  Heavy precipitations  Wind > 20 kt
SIGMETs :     Misc.  Thunderstorms  Icing  Turbulence  Mountain Waves  Volcanic Ashes







- Airport Elevation : 1036 ft
- IATA code : ERF


EDDE - Erfurt

CURRENT METAR :
  • 231750Z 06006KT 9999 FEW013 BKN018 07/05 Q1019 NOSIG

EXPIRED METARs :
  • 231720Z 07005KT 030V100 9999 FEW013 BKN018 07/05 Q1019 NOSIG
  • 231650Z 04007KT 9999 FEW013 BKN018 07/06 Q1018 NOSIG
  • 231620Z 04007KT 9999 FEW013 BKN018 08/05 Q1018 TEMPO BKN012
  • 231550Z 05006KT 9999 SCT012 BKN016 08/05 Q1018 TEMPO BKN012
  • 231520Z 05005KT 020V090 9999 SCT012 BKN016 08/06 Q1018 TEMPO BKN012

TAF TAF EDDE
Valid from the 23 at 18:00 until the 24 at 18:00 UTC


231700Z 2318/2418 06005KT 8000 SCT012 BKN020
BECMG 2318/2321 BKN010
BECMG 2322/2324 BKN007
PROB40
TEMPO 2400/2407 2500 BR BKN004
BECMG 2407/2410 07010KT
BECMG 2408/2411 BKN020
No reported NOTAMs for that airfield.



MET'MAP, your aeronautical weather chart ! - Copyright ORBIFLY December 2007 - Disclaimer

ORBIFLY MET'MAP TEAM :

Programming & Development : Alexandra Zaïnal
Concept & Development : Baudouin d'Aumeries
Co-Development & Prog : Marc-Olivier Méhu
Technical & hardware support : Manuel Goepfert

Contact : metmap@orbifly.com




SOURCES & CREDITS :

   NOAA